Observations for ST. NAZAIRE MONTOIR, France (LFRZ)

LFRZ 171900Z AUTO 29009KT CAVOK 21/09 Q1018 NOSIG   
LFRZ 171830Z AUTO 29008KT 260V330 CAVOK 22/10 Q1018 NOSIG   
LFRZ 171800Z AUTO 29008KT 260V330 CAVOK 22/11 Q1018 NOSIG   
LFRZ 171730Z AUTO 28009KT 250V310 CAVOK 23/10 Q1018 NOSIG   
LFRZ 171700Z AUTO 27009KT 230V310 9999 FEW009 23/11 Q1018 NOSIG 
LFRZ 171630Z AUTO 28009KT 230V310 CAVOK 23/12 Q1018 NOSIG   
LFRZ 171600Z AUTO 27010KT 230V310 CAVOK 23/12 Q1018 NOSIG   
LFRZ 171530Z AUTO 27010KT 220V310 9999 BKN045 BKN056 BKN210 23/13 Q1018 NOSIG   
LFRZ 171500Z AUTO 28011KT 240V320 9999 SCT048 BKN062 24/12 Q1018 NOSIG  
LFRZ 171430Z AUTO 27009KT 230V310 9999 BKN047 BKN054 BKN066 24/12 Q1019 NOSIG   
LFRZ 171400Z AUTO 26010KT 210V280 CAVOK 24/12 Q1019 NOSIG   
LFRZ 171330Z AUTO 26008KT 200V310 CAVOK 24/11 Q1019 NOSIG   
LFRZ 171300Z AUTO 29008KT 250V340 CAVOK 24/11 Q1019 NOSIG   
LFRZ 171230Z AUTO 25006KT 160V290 CAVOK 24/11 Q1019 NOSIG   
LFRZ 171200Z AUTO 17007KT 9999 FEW041 SCT050 BKN062 22/12 Q1019 NOSIG   
LFRZ 171130Z AUTO 20009KT 9999 FEW047 OVC058 21/12 Q1019 NOSIG  
LFRZ 171100Z AUTO 17008KT 9999 FEW041 SCT050 BKN062 21/13 Q1019 NOSIG   
LFRZ 171030Z AUTO 20007KT 160V240 9999 FEW036 BKN058 23/13 Q1019 NOSIG  
LFRZ 171000Z AUTO 24006KT 160V300 9999 FEW042 BKN064 21/13 Q1019 NOSIG  
LFRZ 170930Z AUTO 25006KT 200V310 9999 FEW035 BKN064 22/11 Q1019 NOSIG  
LFRZ 170900Z AUTO VRB04KT 9999 SCT034 OVC064 21/12 Q1019 NOSIG  
LFRZ 170830Z AUTO 32003KT 250V050 CAVOK 21/13 Q1019 NOSIG   
LFRZ 170800Z AUTO 32003KT 250V030 9999 FEW024 OVC062 20/14 Q1019 NOSIG  
LFRZ 170730Z AUTO 29005KT 260V320 CAVOK 19/14 Q1019 NOSIG   
LFRZ 170700Z AUTO 34004KT 290V020 CAVOK 19/14 Q1019 NOSIG   
LFRZ 170630Z AUTO 28004KT 240V310 CAVOK 18/14 Q1019 NOSIG   
LFRZ 170600Z AUTO 36004KT 330V030 CAVOK 18/14 Q1019 NOSIG   
LFRZ 170530Z AUTO 35004KT 310V030 9999 FEW028 SCT049 OVC058 18/14 Q1019 NOSIG   
LFRZ 170500Z AUTO 31004KT 270V350 9999 FEW022 BKN027 BKN032 18/14 Q1018 NOSIG   
LFRZ 170430Z AUTO 29005KT 250V330 9999 FEW025 BKN033 BKN064 18/14 Q1018 NOSIG   
LFRZ 170400Z AUTO 31003KT 260V350 9999 BKN028 OVC034 18/15 Q1018 NOSIG  
LFRZ 170330Z AUTO 30005KT 270V340 9999 SCT027 BKN033 BKN064 18/17 Q1018 NOSIG   
LFRZ 170300Z AUTO 31005KT 280V350 9999 BKN025 OVC030 18/17 Q1018 NOSIG  
LFRZ 170230Z AUTO 28006KT 240V310 9999 FEW010 BKN017 BKN022 19/17 Q1017 NOSIG   
LFRZ 170200Z AUTO 26006KT 9999 FEW020 OVC026 19/17 Q1017 NOSIG  
LFRZ 170130Z AUTO 25005KT 9999 BKN026 BKN045 BKN056 18/17 Q1017 NOSIG   
LFRZ 170100Z AUTO 25006KT 9999 FEW028 OVC046 18/17 Q1017 NOSIG  
LFRZ 170030Z AUTO 25006KT 9999 FEW017 OVC045 19/17 Q1018 NOSIG  
LFRZ 170000Z AUTO 27007KT 9999 BKN013 OVC048 19/17 Q1018 BECMG NSC  
LFRZ 162330Z AUTO 26004KT 230V300 9999 BKN018 BKN023 19/17 Q1018 NOSIG  
LFRZ 162300Z AUTO 28004KT CAVOK 19/17 Q1018 NOSIG   
LFRZ 162230Z AUTO 28005KT CAVOK 19/17 Q1018 NOSIG   
LFRZ 162200Z AUTO 29003KT CAVOK 19/17 Q1018 NOSIG   
LFRZ 162130Z AUTO 27005KT CAVOK 20/17 Q1017 NOSIG   
LFRZ 162100Z AUTO 26008KT CAVOK 20/17 Q1017 NOSIG   
LFRZ 162030Z AUTO 26009KT CAVOK 20/17 Q1017 NOSIG   
LFRZ 162000Z AUTO 26010KT CAVOK 21/17 Q1017 NOSIG   
LFRZ 161930Z AUTO 26012KT CAVOK 21/17 Q1017 NOSIG   
LFRZ 161900Z AUTO 27012KT CAVOK 22/16 Q1016 NOSIG   
LFRZ 161830Z AUTO 28015KT CAVOK 22/15 Q1016 NOSIG